sensor_id;sensor_type;location;lat;lon;timestamp;temperature;humidity
56753;DHT22;42627;42.646;23.642;2022-07-17T00:04:22;18.50;87.50
56753;DHT22;42627;42.646;23.642;2022-07-17T00:06:28;18.60;87.10
56753;DHT22;42627;42.646;23.642;2022-07-17T00:08:29;18.60;86.60
56753;DHT22;42627;42.646;23.642;2022-07-17T00:10:33;18.70;85.70
56753;DHT22;42627;42.646;23.642;2022-07-17T00:12:34;18.60;85.30
56753;DHT22;42627;42.646;23.642;2022-07-17T00:14:34;18.70;85.20
56753;DHT22;42627;42.646;23.642;2022-07-17T00:16:35;18.60;85.30
56753;DHT22;42627;42.646;23.642;2022-07-17T00:18:36;18.40;87.40
56753;DHT22;42627;42.646;23.642;2022-07-17T00:20:42;18.40;88.00
56753;DHT22;42627;42.646;23.642;2022-07-17T00:22:44;18.40;88.20
56753;DHT22;42627;42.646;23.642;2022-07-17T00:24:45;18.30;89.80
56753;DHT22;42627;42.646;23.642;2022-07-17T00:26:50;18.10;90.50
56753;DHT22;42627;42.646;23.642;2022-07-17T00:28:51;18.00;91.10
56753;DHT22;42627;42.646;23.642;2022-07-17T00:30:56;18.00;91.40
56753;DHT22;42627;42.646;23.642;2022-07-17T00:33:09;17.90;92.10
56753;DHT22;42627;42.646;23.642;2022-07-17T00:35:14;18.10;91.50
56753;DHT22;42627;42.646;23.642;2022-07-17T00:37:27;18.00;91.30
56753;DHT22;42627;42.646;23.642;2022-07-17T00:39:28;17.80;92.30
56753;DHT22;42627;42.646;23.642;2022-07-17T00:41:29;17.90;92.30
56753;DHT22;42627;42.646;23.642;2022-07-17T00:43:29;17.90;91.30
56753;DHT22;42627;42.646;23.642;2022-07-17T00:45:30;17.90;90.60
56753;DHT22;42627;42.646;23.642;2022-07-17T00:47:31;18.00;90.50
56753;DHT22;42627;42.646;23.642;2022-07-17T00:49:31;18.00;90.30
56753;DHT22;42627;42.646;23.642;2022-07-17T00:53:43;18.00;91.20
56753;DHT22;42627;42.646;23.642;2022-07-17T00:55:45;18.00;90.70
56753;DHT22;42627;42.646;23.642;2022-07-17T00:57:48;17.90;91.50
56753;DHT22;42627;42.646;23.642;2022-07-17T00:59:49;18.00;91.80
56753;DHT22;42627;42.646;23.642;2022-07-17T01:01:50;17.90;92.10
56753;DHT22;42627;42.646;23.642;2022-07-17T01:03:51;18.00;91.80
56753;DHT22;42627;42.646;23.642;2022-07-17T01:06:13;18.00;91.00
56753;DHT22;42627;42.646;23.642;2022-07-17T01:08:38;17.90;91.10
56753;DHT22;42627;42.646;23.642;2022-07-17T01:10:57;18.00;90.60
56753;DHT22;42627;42.646;23.642;2022-07-17T01:12:57;18.00;90.40
56753;DHT22;42627;42.646;23.642;2022-07-17T01:14:59;18.00;90.30
56753;DHT22;42627;42.646;23.642;2022-07-17T01:17:01;17.90;90.70
56753;DHT22;42627;42.646;23.642;2022-07-17T01:19:02;18.00;90.30
56753;DHT22;42627;42.646;23.642;2022-07-17T01:21:04;18.00;89.50
56753;DHT22;42627;42.646;23.642;2022-07-17T01:23:06;18.00;88.90
56753;DHT22;42627;42.646;23.642;2022-07-17T01:25:07;18.00;88.40
56753;DHT22;42627;42.646;23.642;2022-07-17T01:27:07;18.00;87.60
56753;DHT22;42627;42.646;23.642;2022-07-17T01:29:10;18.00;88.30
56753;DHT22;42627;42.646;23.642;2022-07-17T01:31:11;17.90;87.50
56753;DHT22;42627;42.646;23.642;2022-07-17T01:33:11;17.90;87.50
56753;DHT22;42627;42.646;23.642;2022-07-17T01:35:13;17.80;87.80
56753;DHT22;42627;42.646;23.642;2022-07-17T01:37:31;17.70;89.40
56753;DHT22;42627;42.646;23.642;2022-07-17T01:39:50;17.70;90.30
56753;DHT22;42627;42.646;23.642;2022-07-17T01:41:54;17.70;90.40
56753;DHT22;42627;42.646;23.642;2022-07-17T01:43:54;17.60;90.70
56753;DHT22;42627;42.646;23.642;2022-07-17T01:45:55;17.60;91.20
56753;DHT22;42627;42.646;23.642;2022-07-17T01:47:56;17.50;91.70
56753;DHT22;42627;42.646;23.642;2022-07-17T01:49:58;17.50;91.80
56753;DHT22;42627;42.646;23.642;2022-07-17T01:51:59;17.30;92.60
56753;DHT22;42627;42.646;23.642;2022-07-17T01:54:00;17.20;93.30
56753;DHT22;42627;42.646;23.642;2022-07-17T01:56:06;17.00;94.00
56753;DHT22;42627;42.646;23.642;2022-07-17T01:58:07;17.00;94.00
56753;DHT22;42627;42.646;23.642;2022-07-17T02:00:15;17.10;93.70
56753;DHT22;42627;42.646;23.642;2022-07-17T02:02:17;17.20;93.20
56753;DHT22;42627;42.646;23.642;2022-07-17T02:04:17;17.20;93.00
56753;DHT22;42627;42.646;23.642;2022-07-17T02:06:40;17.20;92.40
56753;DHT22;42627;42.646;23.642;2022-07-17T02:08:43;17.30;92.10
56753;DHT22;42627;42.646;23.642;2022-07-17T02:10:58;17.30;91.40
56753;DHT22;42627;42.646;23.642;2022-07-17T02:12:59;17.10;92.00
56753;DHT22;42627;42.646;23.642;2022-07-17T02:15:00;17.10;91.90
56753;DHT22;42627;42.646;23.642;2022-07-17T02:17:00;17.00;92.10
56753;DHT22;42627;42.646;23.642;2022-07-17T02:19:01;17.00;93.20
56753;DHT22;42627;42.646;23.642;2022-07-17T02:21:02;17.00;92.70
56753;DHT22;42627;42.646;23.642;2022-07-17T02:23:03;16.90;92.50
56753;DHT22;42627;42.646;23.642;2022-07-17T02:25:19;16.80;93.90
56753;DHT22;42627;42.646;23.642;2022-07-17T02:27:20;16.70;95.10
56753;DHT22;42627;42.646;23.642;2022-07-17T02:29:20;16.60;96.20
56753;DHT22;42627;42.646;23.642;2022-07-17T02:31:21;16.60;96.40
56753;DHT22;42627;42.646;23.642;2022-07-17T02:33:22;16.50;97.10
56753;DHT22;42627;42.646;23.642;2022-07-17T02:35:56;16.60;96.60
56753;DHT22;42627;42.646;23.642;2022-07-17T02:38:17;16.50;97.30
56753;DHT22;42627;42.646;23.642;2022-07-17T02:40:27;16.40;98.10
56753;DHT22;42627;42.646;23.642;2022-07-17T02:42:28;16.40;97.90
56753;DHT22;42627;42.646;23.642;2022-07-17T02:44:29;16.40;98.60
56753;DHT22;42627;42.646;23.642;2022-07-17T02:46:29;16.40;98.90
56753;DHT22;42627;42.646;23.642;2022-07-17T02:48:30;16.50;98.80
56753;DHT22;42627;42.646;23.642;2022-07-17T02:50:31;16.50;98.10
56753;DHT22;42627;42.646;23.642;2022-07-17T02:52:32;16.50;96.50
56753;DHT22;42627;42.646;23.642;2022-07-17T02:56:47;16.30;98.00
56753;DHT22;42627;42.646;23.642;2022-07-17T02:58:48;16.40;96.20
56753;DHT22;42627;42.646;23.642;2022-07-17T03:00:49;16.40;96.10
56753;DHT22;42627;42.646;23.642;2022-07-17T03:02:49;16.40;96.80
56753;DHT22;42627;42.646;23.642;2022-07-17T03:05:03;16.50;96.90
56753;DHT22;42627;42.646;23.642;2022-07-17T03:07:41;16.50;96.60
56753;DHT22;42627;42.646;23.642;2022-07-17T03:10:01;16.50;96.00
56753;DHT22;42627;42.646;23.642;2022-07-17T03:12:02;16.50;96.80
56753;DHT22;42627;42.646;23.642;2022-07-17T03:14:03;16.60;96.70
56753;DHT22;42627;42.646;23.642;2022-07-17T03:16:05;16.50;96.60
56753;DHT22;42627;42.646;23.642;2022-07-17T03:18:05;16.60;96.30
56753;DHT22;42627;42.646;23.642;2022-07-17T03:20:08;16.60;95.50
56753;DHT22;42627;42.646;23.642;2022-07-17T03:22:09;16.70;95.40
56753;DHT22;42627;42.646;23.642;2022-07-17T03:26:20;16.60;95.90
56753;DHT22;42627;42.646;23.642;2022-07-17T03:28:21;16.60;95.90
56753;DHT22;42627;42.646;23.642;2022-07-17T03:30:21;16.70;96.00
56753;DHT22;42627;42.646;23.642;2022-07-17T03:32:22;16.70;95.70
56753;DHT22;42627;42.646;23.642;2022-07-17T03:34:23;16.60;95.80
56753;DHT22;42627;42.646;23.642;2022-07-17T03:36:23;16.60;96.10
56753;DHT22;42627;42.646;23.642;2022-07-17T03:38:24;16.70;96.00
56753;DHT22;42627;42.646;23.642;2022-07-17T03:40:40;16.60;96.90
56753;DHT22;42627;42.646;23.642;2022-07-17T03:43:28;16.40;98.50
56753;DHT22;42627;42.646;23.642;2022-07-17T03:45:34;16.40;98.50
56753;DHT22;42627;42.646;23.642;2022-07-17T03:47:35;16.50;98.20
56753;DHT22;42627;42.646;23.642;2022-07-17T03:49:39;16.40;98.70
56753;DHT22;42627;42.646;23.642;2022-07-17T03:51:39;16.40;99.40
56753;DHT22;42627;42.646;23.642;2022-07-17T03:53:40;16.50;99.30
56753;DHT22;42627;42.646;23.642;2022-07-17T03:55:40;16.50;99.20
56753;DHT22;42627;42.646;23.642;2022-07-17T03:57:41;16.40;99.90
56753;DHT22;42627;42.646;23.642;2022-07-17T03:59:48;16.50;99.90
56753;DHT22;42627;42.646;23.642;2022-07-17T04:01:48;16.50;99.90
56753;DHT22;42627;42.646;23.642;2022-07-17T04:03:49;16.50;99.90
56753;DHT22;42627;42.646;23.642;2022-07-17T04:05:50;16.50;99.90
56753;DHT22;42627;42.646;23.642;2022-07-17T04:07:51;16.50;99.90
56753;DHT22;42627;42.646;23.642;2022-07-17T04:10:11;16.60;99.90
56753;DHT22;42627;42.646;23.642;2022-07-17T04:13:00;16.60;99.90
56753;DHT22;42627;42.646;23.642;2022-07-17T04:15:07;16.70;99.90
56753;DHT22;42627;42.646;23.642;2022-07-17T04:17:08;16.70;99.90
56753;DHT22;42627;42.646;23.642;2022-07-17T04:19:08;16.80;99.90
56753;DHT22;42627;42.646;23.642;2022-07-17T04:21:09;16.80;99.90
56753;DHT22;42627;42.646;23.642;2022-07-17T04:23:10;16.90;99.90
56753;DHT22;42627;42.646;23.642;2022-07-17T04:25:11;17.10;99.90
56753;DHT22;42627;42.646;23.642;2022-07-17T04:27:12;17.10;99.90
56753;DHT22;42627;42.646;23.642;2022-07-17T04:31:24;17.40;99.90
56753;DHT22;42627;42.646;23.642;2022-07-17T04:33:24;17.70;99.90
56753;DHT22;42627;42.646;23.642;2022-07-17T04:35:26;17.90;99.90
56753;DHT22;42627;42.646;23.642;2022-07-17T04:37:27;18.10;99.80
56753;DHT22;42627;42.646;23.642;2022-07-17T04:39:47;18.20;99.90
56753;DHT22;42627;42.646;23.642;2022-07-17T04:41:54;18.30;99.20
56753;DHT22;42627;42.646;23.642;2022-07-17T04:44:06;18.50;98.80
56753;DHT22;42627;42.646;23.642;2022-07-17T04:46:07;18.70;98.30
56753;DHT22;42627;42.646;23.642;2022-07-17T04:48:08;18.80;98.10
56753;DHT22;42627;42.646;23.642;2022-07-17T04:50:09;18.90;98.20
56753;DHT22;42627;42.646;23.642;2022-07-17T04:52:10;19.00;98.30
56753;DHT22;42627;42.646;23.642;2022-07-17T04:54:10;19.10;99.30
56753;DHT22;42627;42.646;23.642;2022-07-17T04:56:11;19.20;98.80
56753;DHT22;42627;42.646;23.642;2022-07-17T04:58:37;19.20;99.60
56753;DHT22;42627;42.646;23.642;2022-07-17T05:00:38;19.40;98.70
56753;DHT22;42627;42.646;23.642;2022-07-17T05:02:38;19.50;98.70
56753;DHT22;42627;42.646;23.642;2022-07-17T05:04:39;19.50;99.00
56753;DHT22;42627;42.646;23.642;2022-07-17T05:06:40;19.60;98.30
56753;DHT22;42627;42.646;23.642;2022-07-17T05:09:00;19.80;97.90
56753;DHT22;42627;42.646;23.642;2022-07-17T05:11:38;19.90;97.20
56753;DHT22;42627;42.646;23.642;2022-07-17T05:13:53;20.00;95.70
56753;DHT22;42627;42.646;23.642;2022-07-17T05:15:54;19.90;93.10
56753;DHT22;42627;42.646;23.642;2022-07-17T05:17:55;20.00;92.50
56753;DHT22;42627;42.646;23.642;2022-07-17T05:19:56;20.10;92.10
56753;DHT22;42627;42.646;23.642;2022-07-17T05:21:57;20.20;90.50
56753;DHT22;42627;42.646;23.642;2022-07-17T05:23:57;20.20;87.70
56753;DHT22;42627;42.646;23.642;2022-07-17T05:25:58;20.30;88.40
56753;DHT22;42627;42.646;23.642;2022-07-17T05:30:14;20.40;86.30
56753;DHT22;42627;42.646;23.642;2022-07-17T05:32:15;20.50;84.80
56753;DHT22;42627;42.646;23.642;2022-07-17T05:34:15;20.50;83.50
56753;DHT22;42627;42.646;23.642;2022-07-17T05:36:16;20.50;84.20
56753;DHT22;42627;42.646;23.642;2022-07-17T05:38:17;20.40;84.90
56753;DHT22;42627;42.646;23.642;2022-07-17T05:40:30;20.60;83.10
56753;DHT22;42627;42.646;23.642;2022-07-17T05:44:41;20.60;83.60
56753;DHT22;42627;42.646;23.642;2022-07-17T05:46:41;20.60;82.90
56753;DHT22;42627;42.646;23.642;2022-07-17T05:48:42;20.60;81.40
56753;DHT22;42627;42.646;23.642;2022-07-17T05:50:43;20.70;81.10
56753;DHT22;42627;42.646;23.642;2022-07-17T05:52:43;20.80;80.00
56753;DHT22;42627;42.646;23.642;2022-07-17T05:54:44;20.80;80.20
56753;DHT22;42627;42.646;23.642;2022-07-17T05:56:45;20.90;80.00
56753;DHT22;42627;42.646;23.642;2022-07-17T05:58:45;20.90;80.10
56753;DHT22;42627;42.646;23.642;2022-07-17T06:00:46;21.00;80.20
56753;DHT22;42627;42.646;23.642;2022-07-17T06:02:49;21.00;78.40
56753;DHT22;42627;42.646;23.642;2022-07-17T06:04:49;21.00;77.20
56753;DHT22;42627;42.646;23.642;2022-07-17T06:06:50;21.10;78.60
56753;DHT22;42627;42.646;23.642;2022-07-17T06:08:51;21.10;79.00
56753;DHT22;42627;42.646;23.642;2022-07-17T06:10:51;21.20;79.00
56753;DHT22;42627;42.646;23.642;2022-07-17T06:13:14;21.20;78.00
56753;DHT22;42627;42.646;23.642;2022-07-17T06:15:36;21.30;76.50
56753;DHT22;42627;42.646;23.642;2022-07-17T06:17:49;21.40;76.20
56753;DHT22;42627;42.646;23.642;2022-07-17T06:19:50;21.50;75.70
56753;DHT22;42627;42.646;23.642;2022-07-17T06:21:52;21.60;74.80
56753;DHT22;42627;42.646;23.642;2022-07-17T06:23:52;21.60;72.00
56753;DHT22;42627;42.646;23.642;2022-07-17T06:25:53;21.60;71.00
56753;DHT22;42627;42.646;23.642;2022-07-17T06:27:54;21.70;70.90
56753;DHT22;42627;42.646;23.642;2022-07-17T06:29:54;21.70;72.20
56753;DHT22;42627;42.646;23.642;2022-07-17T06:31:55;21.80;71.80
56753;DHT22;42627;42.646;23.642;2022-07-17T06:34:14;21.90;70.20
56753;DHT22;42627;42.646;23.642;2022-07-17T06:36:14;22.00;71.20
56753;DHT22;42627;42.646;23.642;2022-07-17T06:38:15;22.10;68.90
56753;DHT22;42627;42.646;23.642;2022-07-17T06:40:16;22.10;70.20
56753;DHT22;42627;42.646;23.642;2022-07-17T06:42:17;22.20;72.00
56753;DHT22;42627;42.646;23.642;2022-07-17T06:44:48;22.20;71.40
56753;DHT22;42627;42.646;23.642;2022-07-17T06:47:03;22.30;70.50
56753;DHT22;42627;42.646;23.642;2022-07-17T06:49:04;22.40;70.70
56753;DHT22;42627;42.646;23.642;2022-07-17T06:51:05;22.40;70.60
56753;DHT22;42627;42.646;23.642;2022-07-17T06:53:05;22.50;68.50
56753;DHT22;42627;42.646;23.642;2022-07-17T06:55:06;22.60;69.10
56753;DHT22;42627;42.646;23.642;2022-07-17T06:57:07;22.60;69.10
56753;DHT22;42627;42.646;23.642;2022-07-17T06:59:08;22.80;69.50
56753;DHT22;42627;42.646;23.642;2022-07-17T07:01:09;22.80;66.50
56753;DHT22;42627;42.646;23.642;2022-07-17T07:03:12;22.90;64.90
56753;DHT22;42627;42.646;23.642;2022-07-17T07:05:13;23.00;66.40
56753;DHT22;42627;42.646;23.642;2022-07-17T07:07:14;23.10;63.30
56753;DHT22;42627;42.646;23.642;2022-07-17T07:09:14;23.20;61.50
56753;DHT22;42627;42.646;23.642;2022-07-17T07:11:15;23.20;60.40
56753;DHT22;42627;42.646;23.642;2022-07-17T07:13:19;23.30;61.40
56753;DHT22;42627;42.646;23.642;2022-07-17T07:15:49;23.40;61.70
56753;DHT22;42627;42.646;23.642;2022-07-17T07:18:06;23.40;61.20
56753;DHT22;42627;42.646;23.642;2022-07-17T07:20:07;23.70;58.10
56753;DHT22;42627;42.646;23.642;2022-07-17T07:22:08;23.70;58.60
56753;DHT22;42627;42.646;23.642;2022-07-17T07:24:09;23.80;58.30
56753;DHT22;42627;42.646;23.642;2022-07-17T07:26:09;23.90;57.00
56753;DHT22;42627;42.646;23.642;2022-07-17T07:28:10;24.00;59.80
56753;DHT22;42627;42.646;23.642;2022-07-17T07:30:11;24.10;56.70
56753;DHT22;42627;42.646;23.642;2022-07-17T07:32:27;24.20;55.40
56753;DHT22;42627;42.646;23.642;2022-07-17T07:34:28;24.10;54.90
56753;DHT22;42627;42.646;23.642;2022-07-17T07:36:28;24.20;53.50
56753;DHT22;42627;42.646;23.642;2022-07-17T07:38:29;24.20;54.90
56753;DHT22;42627;42.646;23.642;2022-07-17T07:40:30;24.30;54.50
56753;DHT22;42627;42.646;23.642;2022-07-17T07:42:46;24.30;53.50
56753;DHT22;42627;42.646;23.642;2022-07-17T07:45:06;24.40;52.00
56753;DHT22;42627;42.646;23.642;2022-07-17T07:47:25;24.40;52.10
56753;DHT22;42627;42.646;23.642;2022-07-17T07:49:26;24.30;52.50
56753;DHT22;42627;42.646;23.642;2022-07-17T07:51:27;24.40;54.20
56753;DHT22;42627;42.646;23.642;2022-07-17T07:53:27;24.50;54.40
56753;DHT22;42627;42.646;23.642;2022-07-17T07:55:28;24.60;52.20
56753;DHT22;42627;42.646;23.642;2022-07-17T07:57:29;24.60;54.00
56753;DHT22;42627;42.646;23.642;2022-07-17T07:59:30;24.70;53.20
56753;DHT22;42627;42.646;23.642;2022-07-17T08:01:34;24.70;52.60
56753;DHT22;42627;42.646;23.642;2022-07-17T08:03:34;24.80;54.70
56753;DHT22;42627;42.646;23.642;2022-07-17T08:05:36;24.90;53.90
56753;DHT22;42627;42.646;23.642;2022-07-17T08:07:36;25.00;52.50
56753;DHT22;42627;42.646;23.642;2022-07-17T08:09:37;25.10;50.90
56753;DHT22;42627;42.646;23.642;2022-07-17T08:11:37;25.10;54.10
56753;DHT22;42627;42.646;23.642;2022-07-17T08:13:56;25.10;52.70
56753;DHT22;42627;42.646;23.642;2022-07-17T08:18:47;25.20;51.40
56753;DHT22;42627;42.646;23.642;2022-07-17T08:20:48;25.20;51.40
56753;DHT22;42627;42.646;23.642;2022-07-17T08:22:49;25.20;53.80
56753;DHT22;42627;42.646;23.642;2022-07-17T08:24:50;25.30;52.30
56753;DHT22;42627;42.646;23.642;2022-07-17T08:26:50;25.40;54.20
56753;DHT22;42627;42.646;23.642;2022-07-17T08:28:51;25.50;51.50
56753;DHT22;42627;42.646;23.642;2022-07-17T08:30:51;25.50;53.50
56753;DHT22;42627;42.646;23.642;2022-07-17T08:33:01;25.50;49.70
56753;DHT22;42627;42.646;23.642;2022-07-17T08:35:02;25.50;46.70
56753;DHT22;42627;42.646;23.642;2022-07-17T08:37:03;25.60;48.00
56753;DHT22;42627;42.646;23.642;2022-07-17T08:39:04;25.70;46.20
56753;DHT22;42627;42.646;23.642;2022-07-17T08:41:04;25.70;45.30
56753;DHT22;42627;42.646;23.642;2022-07-17T08:43:33;25.70;46.40
56753;DHT22;42627;42.646;23.642;2022-07-17T08:45:58;25.70;47.20
56753;DHT22;42627;42.646;23.642;2022-07-17T08:48:19;25.80;48.50
56753;DHT22;42627;42.646;23.642;2022-07-17T08:50:23;25.80;49.50
56753;DHT22;42627;42.646;23.642;2022-07-17T08:52:24;25.90;50.10
56753;DHT22;42627;42.646;23.642;2022-07-17T08:54:25;26.00;48.20
56753;DHT22;42627;42.646;23.642;2022-07-17T08:56:26;25.90;48.80
56753;DHT22;42627;42.646;23.642;2022-07-17T08:58:27;25.90;48.80
56753;DHT22;42627;42.646;23.642;2022-07-17T09:03:04;26.10;47.80
56753;DHT22;42627;42.646;23.642;2022-07-17T09:05:06;26.10;48.30
56753;DHT22;42627;42.646;23.642;2022-07-17T09:07:07;26.00;48.30
56753;DHT22;42627;42.646;23.642;2022-07-17T09:09:12;26.00;49.80
56753;DHT22;42627;42.646;23.642;2022-07-17T09:11:13;26.00;48.90
56753;DHT22;42627;42.646;23.642;2022-07-17T09:13:31;26.10;48.10
56753;DHT22;42627;42.646;23.642;2022-07-17T09:15:33;26.20;47.80
56753;DHT22;42627;42.646;23.642;2022-07-17T09:17:34;26.30;47.50
56753;DHT22;42627;42.646;23.642;2022-07-17T09:19:37;26.30;47.80
56753;DHT22;42627;42.646;23.642;2022-07-17T09:21:38;26.20;47.40
56753;DHT22;42627;42.646;23.642;2022-07-17T09:23:39;26.20;46.80
56753;DHT22;42627;42.646;23.642;2022-07-17T09:25:43;26.20;48.80
56753;DHT22;42627;42.646;23.642;2022-07-17T09:27:44;26.30;48.00
56753;DHT22;42627;42.646;23.642;2022-07-17T09:31:56;26.40;46.40
56753;DHT22;42627;42.646;23.642;2022-07-17T09:34:00;26.50;46.00
56753;DHT22;42627;42.646;23.642;2022-07-17T09:36:20;26.60;47.50
56753;DHT22;42627;42.646;23.642;2022-07-17T09:38:29;26.70;45.30
56753;DHT22;42627;42.646;23.642;2022-07-17T09:40:30;26.70;45.90
56753;DHT22;42627;42.646;23.642;2022-07-17T09:42:55;26.60;46.50
56753;DHT22;42627;42.646;23.642;2022-07-17T09:45:04;26.60;46.50
56753;DHT22;42627;42.646;23.642;2022-07-17T09:47:05;26.60;46.70
56753;DHT22;42627;42.646;23.642;2022-07-17T09:49:06;26.50;46.60
56753;DHT22;42627;42.646;23.642;2022-07-17T09:53:27;26.50;47.50
56753;DHT22;42627;42.646;23.642;2022-07-17T09:55:30;26.40;46.10
56753;DHT22;42627;42.646;23.642;2022-07-17T09:57:34;26.50;47.50
56753;DHT22;42627;42.646;23.642;2022-07-17T09:59:37;26.60;48.80
56753;DHT22;42627;42.646;23.642;2022-07-17T10:01:44;26.60;46.10
56753;DHT22;42627;42.646;23.642;2022-07-17T10:04:39;26.60;48.30
56753;DHT22;42627;42.646;23.642;2022-07-17T10:06:49;26.60;46.70
56753;DHT22;42627;42.646;23.642;2022-07-17T10:08:52;26.60;47.50
56753;DHT22;42627;42.646;23.642;2022-07-17T10:10:53;26.60;45.60
56753;DHT22;42627;42.646;23.642;2022-07-17T10:12:53;26.50;45.50
56753;DHT22;42627;42.646;23.642;2022-07-17T10:14:55;26.40;45.50
56753;DHT22;42627;42.646;23.642;2022-07-17T10:17:06;26.50;46.60
56753;DHT22;42627;42.646;23.642;2022-07-17T10:19:27;26.50;45.20
56753;DHT22;42627;42.646;23.642;2022-07-17T10:21:30;26.40;46.10
56753;DHT22;42627;42.646;23.642;2022-07-17T10:23:31;26.30;46.50
56753;DHT22;42627;42.646;23.642;2022-07-17T10:25:31;26.20;46.40
56753;DHT22;42627;42.646;23.642;2022-07-17T10:27:36;26.30;46.80
56753;DHT22;42627;42.646;23.642;2022-07-17T10:29:38;26.30;47.90
56753;DHT22;42627;42.646;23.642;2022-07-17T10:31:51;26.40;47.30
56753;DHT22;42627;42.646;23.642;2022-07-17T10:34:03;26.50;48.00
56753;DHT22;42627;42.646;23.642;2022-07-17T10:38:15;26.60;47.50
56753;DHT22;42627;42.646;23.642;2022-07-17T10:42:46;26.60;48.10
56753;DHT22;42627;42.646;23.642;2022-07-17T10:44:47;26.70;46.60
56753;DHT22;42627;42.646;23.642;2022-07-17T10:46:57;26.80;46.70
56753;DHT22;42627;42.646;23.642;2022-07-17T10:49:10;26.80;46.30
56753;DHT22;42627;42.646;23.642;2022-07-17T10:51:26;26.80;46.30
56753;DHT22;42627;42.646;23.642;2022-07-17T10:53:32;26.70;46.10
56753;DHT22;42627;42.646;23.642;2022-07-17T10:55:35;26.80;47.30
56753;DHT22;42627;42.646;23.642;2022-07-17T10:57:39;26.80;47.20
56753;DHT22;42627;42.646;23.642;2022-07-17T10:59:41;26.90;46.50
56753;DHT22;42627;42.646;23.642;2022-07-17T11:01:42;27.00;46.80
56753;DHT22;42627;42.646;23.642;2022-07-17T11:03:47;27.00;46.90
56753;DHT22;42627;42.646;23.642;2022-07-17T11:05:48;27.10;45.00
56753;DHT22;42627;42.646;23.642;2022-07-17T11:09:53;27.10;46.70
56753;DHT22;42627;42.646;23.642;2022-07-17T11:11:54;27.10;46.90
56753;DHT22;42627;42.646;23.642;2022-07-17T11:13:54;27.10;46.00
56753;DHT22;42627;42.646;23.642;2022-07-17T11:15:56;26.90;47.90
56753;DHT22;42627;42.646;23.642;2022-07-17T11:17:57;26.80;47.10
56753;DHT22;42627;42.646;23.642;2022-07-17T11:20:10;26.80;47.20
56753;DHT22;42627;42.646;23.642;2022-07-17T11:22:12;26.90;47.00
56753;DHT22;42627;42.646;23.642;2022-07-17T11:24:13;27.00;45.80
56753;DHT22;42627;42.646;23.642;2022-07-17T11:26:14;27.00;45.40
56753;DHT22;42627;42.646;23.642;2022-07-17T11:28:14;27.00;45.90
56753;DHT22;42627;42.646;23.642;2022-07-17T11:30:15;27.20;46.30
56753;DHT22;42627;42.646;23.642;2022-07-17T11:32:20;27.30;48.20
56753;DHT22;42627;42.646;23.642;2022-07-17T11:34:20;27.40;45.10
56753;DHT22;42627;42.646;23.642;2022-07-17T11:36:36;27.50;45.30
56753;DHT22;42627;42.646;23.642;2022-07-17T11:38:37;27.40;44.10
56753;DHT22;42627;42.646;23.642;2022-07-17T11:40:51;27.40;45.00
56753;DHT22;42627;42.646;23.642;2022-07-17T11:43:02;27.40;46.40
56753;DHT22;42627;42.646;23.642;2022-07-17T11:45:11;27.60;46.20
56753;DHT22;42627;42.646;23.642;2022-07-17T11:47:35;27.60;46.60
56753;DHT22;42627;42.646;23.642;2022-07-17T11:49:49;27.50;46.30
56753;DHT22;42627;42.646;23.642;2022-07-17T11:51:49;27.40;44.10
56753;DHT22;42627;42.646;23.642;2022-07-17T11:53:50;27.40;45.40
56753;DHT22;42627;42.646;23.642;2022-07-17T11:55:52;27.50;45.60
56753;DHT22;42627;42.646;23.642;2022-07-17T11:57:53;27.60;45.10
56753;DHT22;42627;42.646;23.642;2022-07-17T12:00:05;27.60;46.70
56753;DHT22;42627;42.646;23.642;2022-07-17T12:02:16;27.70;46.40
56753;DHT22;42627;42.646;23.642;2022-07-17T12:04:27;27.80;47.90
56753;DHT22;42627;42.646;23.642;2022-07-17T12:06:27;27.80;44.60
56753;DHT22;42627;42.646;23.642;2022-07-17T12:08:28;27.80;45.50
56753;DHT22;42627;42.646;23.642;2022-07-17T12:10:30;27.80;46.70
56753;DHT22;42627;42.646;23.642;2022-07-17T12:12:32;27.80;47.20
56753;DHT22;42627;42.646;23.642;2022-07-17T12:14:34;27.80;47.70
56753;DHT22;42627;42.646;23.642;2022-07-17T12:17:10;27.80;46.60
56753;DHT22;42627;42.646;23.642;2022-07-17T12:19:26;27.80;47.70
56753;DHT22;42627;42.646;23.642;2022-07-17T12:21:27;27.80;45.40
56753;DHT22;42627;42.646;23.642;2022-07-17T12:23:37;27.80;45.70
56753;DHT22;42627;42.646;23.642;2022-07-17T12:25:38;27.70;44.80
56753;DHT22;42627;42.646;23.642;2022-07-17T12:27:39;27.70;44.90
56753;DHT22;42627;42.646;23.642;2022-07-17T12:29:43;27.80;46.00
56753;DHT22;42627;42.646;23.642;2022-07-17T12:31:45;27.80;46.10
56753;DHT22;42627;42.646;23.642;2022-07-17T12:33:46;27.80;45.40
56753;DHT22;42627;42.646;23.642;2022-07-17T12:35:47;27.70;45.30
56753;DHT22;42627;42.646;23.642;2022-07-17T12:37:48;27.70;44.90
56753;DHT22;42627;42.646;23.642;2022-07-17T12:39:49;27.60;44.60
56753;DHT22;42627;42.646;23.642;2022-07-17T12:41:50;27.60;45.30
56753;DHT22;42627;42.646;23.642;2022-07-17T12:43:51;27.60;44.80
56753;DHT22;42627;42.646;23.642;2022-07-17T12:46:22;27.60;44.90
56753;DHT22;42627;42.646;23.642;2022-07-17T12:48:36;27.50;47.00
56753;DHT22;42627;42.646;23.642;2022-07-17T12:50:40;27.50;45.40
56753;DHT22;42627;42.646;23.642;2022-07-17T12:52:41;27.50;45.50
56753;DHT22;42627;42.646;23.642;2022-07-17T12:54:42;27.50;45.20
56753;DHT22;42627;42.646;23.642;2022-07-17T12:56:42;27.50;45.50
56753;DHT22;42627;42.646;23.642;2022-07-17T12:58:43;27.50;45.60
56753;DHT22;42627;42.646;23.642;2022-07-17T13:00:44;27.60;45.30
56753;DHT22;42627;42.646;23.642;2022-07-17T13:02:45;27.70;45.90
56753;DHT22;42627;42.646;23.642;2022-07-17T13:06:56;27.80;45.00
56753;DHT22;42627;42.646;23.642;2022-07-17T13:08:57;27.80;44.80
56753;DHT22;42627;42.646;23.642;2022-07-17T13:10:58;27.80;45.90
56753;DHT22;42627;42.646;23.642;2022-07-17T13:12:59;27.80;47.00
56753;DHT22;42627;42.646;23.642;2022-07-17T13:15:21;27.80;47.00
56753;DHT22;42627;42.646;23.642;2022-07-17T13:17:48;27.80;47.50
56753;DHT22;42627;42.646;23.642;2022-07-17T13:19:54;27.90;48.30
56753;DHT22;42627;42.646;23.642;2022-07-17T13:21:55;28.00;46.90
56753;DHT22;42627;42.646;23.642;2022-07-17T13:23:55;28.00;45.40
56753;DHT22;42627;42.646;23.642;2022-07-17T13:25:56;28.00;45.90
56753;DHT22;42627;42.646;23.642;2022-07-17T13:27:57;28.10;45.30
56753;DHT22;42627;42.646;23.642;2022-07-17T13:29:57;28.10;46.00
56753;DHT22;42627;42.646;23.642;2022-07-17T13:31:58;28.00;46.20